createdAt,value
2018-09-25T00:00:02.518Z,0
2018-09-25T00:05:02.484Z,0
2018-09-25T00:10:03.285Z,0
2018-09-25T00:15:02.835Z,0
2018-09-25T00:20:02.494Z,0
2018-09-25T00:25:03.100Z,0
2018-09-25T00:30:02.637Z,0
2018-09-25T00:35:03.227Z,0
2018-09-25T00:40:02.945Z,0
2018-09-25T00:45:02.624Z,0
2018-09-25T00:50:03.221Z,0
2018-09-25T00:55:02.738Z,0
2018-09-25T01:00:02.373Z,0
2018-09-25T01:05:02.933Z,0
2018-09-25T01:10:02.600Z,0
2018-09-25T01:15:03.185Z,0
2018-09-25T01:20:02.797Z,0
2018-09-25T01:25:02.455Z,0
2018-09-25T01:30:03.156Z,0
2018-09-25T01:35:02.892Z,0
2018-09-25T01:40:02.616Z,0
2018-09-25T01:45:03.221Z,0
2018-09-25T01:50:02.805Z,0
2018-09-25T01:55:02.391Z,0
2018-09-25T02:00:02.851Z,0
2018-09-25T02:05:02.448Z,0
2018-09-25T02:10:03.116Z,0
2018-09-25T02:15:02.698Z,0
2018-09-25T02:20:02.408Z,0
2018-09-25T02:25:03.013Z,0
2018-09-25T02:30:02.551Z,0
2018-09-25T02:35:03.166Z,0
2018-09-25T02:40:02.833Z,0
2018-09-25T02:45:02.436Z,0
2018-09-25T02:50:03.109Z,0
2018-09-25T02:55:02.719Z,0
2018-09-25T03:00:03.542Z,0
2018-09-25T03:05:03.144Z,0
2018-09-25T03:10:02.838Z,0
2018-09-25T03:15:02.408Z,0
2018-09-25T03:20:03.061Z,0
2018-09-25T03:25:02.866Z,0
2018-09-25T03:30:02.561Z,0
2018-09-25T03:35:03.317Z,0
2018-09-25T03:40:03.034Z,0
2018-09-25T03:45:02.667Z,0
2018-09-25T03:50:03.407Z,0
2018-09-25T03:55:03.028Z,0
2018-09-25T04:00:03.094Z,0
2018-09-25T04:05:02.690Z,0
2018-09-25T04:10:02.598Z,0
2018-09-25T04:15:03.272Z,0
2018-09-25T04:20:02.915Z,0
2018-09-25T04:25:02.641Z,0
2018-09-25T04:30:03.344Z,0
2018-09-25T04:35:02.918Z,0
2018-09-25T04:40:02.684Z,0
2018-09-25T04:45:03.355Z,0
2018-09-25T04:50:02.927Z,0
2018-09-25T04:55:02.645Z,2
2018-09-25T05:00:03.301Z,5
2018-09-25T05:05:02.867Z,13
2018-09-25T05:10:02.648Z,39
2018-09-25T05:15:03.199Z,56
2018-09-25T05:20:02.788Z,72
2018-09-25T05:25:03.450Z,101
2018-09-25T05:30:03.120Z,139
2018-09-25T05:35:02.673Z,349
2018-09-25T05:40:03.457Z,443
2018-09-25T05:45:03.112Z,537
2018-09-25T05:50:02.666Z,628
2018-09-25T05:55:03.279Z,713
2018-09-25T06:00:02.823Z,767
2018-09-25T06:05:02.450Z,927
2018-09-25T06:10:03.181Z,1000
2018-09-25T06:15:02.758Z,952
2018-09-25T06:20:03.334Z,1000
2018-09-25T06:25:03.031Z,1000
2018-09-25T06:30:02.625Z,1000
2018-09-25T06:35:03.607Z,1000
2018-09-25T06:40:03.320Z,1000
2018-09-25T06:45:03.007Z,1000
2018-09-25T06:50:02.704Z,1000
2018-09-25T06:55:03.464Z,1000
2018-09-25T07:00:02.820Z,1000
2018-09-25T07:05:02.450Z,1000
2018-09-25T07:10:03.737Z,1000
2018-09-25T07:15:02.433Z,1000
2018-09-25T07:20:03.092Z,2000
2018-09-25T07:25:02.829Z,2000
2018-09-25T07:30:03.329Z,2000
2018-09-25T07:35:02.945Z,2000
2018-09-25T07:40:02.558Z,2000
2018-09-25T07:45:03.303Z,2000
2018-09-25T07:50:02.871Z,2000
2018-09-25T07:55:02.514Z,2000
2018-09-25T08:00:03.109Z,33000
2018-09-25T08:05:02.714Z,35000
2018-09-25T08:10:03.297Z,37000
2018-09-25T08:15:02.984Z,37000
2018-09-25T08:20:02.697Z,38000
2018-09-25T08:25:03.373Z,38000
2018-09-25T08:30:03.354Z,38000
2018-09-25T08:35:03.130Z,39000
2018-09-25T08:40:03.309Z,40000
2018-09-25T08:45:02.896Z,41000
2018-09-25T08:50:02.523Z,41000
2018-09-25T08:55:02.967Z,42000
2018-09-25T09:00:02.474Z,42000
2018-09-25T09:05:03.199Z,43000
2018-09-25T09:10:02.732Z,44000
2018-09-25T09:15:02.497Z,45000
2018-09-25T09:20:03.430Z,45000
2018-09-25T09:25:02.513Z,45000
2018-09-25T09:30:03.362Z,45000
2018-09-25T09:35:02.973Z,46000
2018-09-25T09:40:02.801Z,47000
2018-09-25T09:45:03.343Z,47000
2018-09-25T09:50:03.024Z,48000
2018-09-25T09:55:02.800Z,49000
2018-09-25T10:00:02.541Z,51000
2018-09-25T10:05:02.510Z,54000
2018-09-25T10:10:02.670Z,55000
2018-09-25T10:15:03.044Z,57000
2018-09-25T10:20:02.574Z,58000
2018-09-25T10:25:03.394Z,57000
2018-09-25T10:30:03.057Z,59000
2018-09-25T10:35:02.709Z,57000
2018-09-25T10:40:02.431Z,11000
2018-09-25T10:45:03.119Z,6000
2018-09-25T10:50:02.832Z,6000
2018-09-25T10:55:02.767Z,5000
2018-09-25T11:00:03.390Z,5000
2018-09-25T11:05:02.973Z,5000
2018-09-25T11:10:02.922Z,31000
2018-09-25T11:15:02.834Z,50000
2018-09-25T11:20:02.662Z,7000
2018-09-25T11:25:02.338Z,6000
2018-09-25T11:30:02.988Z,6000
2018-09-25T11:35:02.675Z,7000
2018-09-25T11:40:03.355Z,6000
2018-09-25T11:45:02.913Z,49000
2018-09-25T11:50:02.624Z,22000
2018-09-25T11:55:03.302Z,6000
2018-09-25T12:00:02.894Z,5000
2018-09-25T12:05:02.540Z,4000
2018-09-25T12:10:03.189Z,3000
2018-09-25T12:15:02.606Z,4000
2018-09-25T12:20:03.444Z,4000
2018-09-25T12:25:02.388Z,5000
2018-09-25T12:30:02.986Z,5000
2018-09-25T12:35:02.589Z,5000
2018-09-25T12:40:03.380Z,5000
2018-09-25T12:45:03.005Z,6000
2018-09-25T12:50:02.599Z,6000
2018-09-25T12:55:03.265Z,6000
2018-09-25T13:00:02.927Z,6000
2018-09-25T13:05:02.528Z,6000
2018-09-25T13:10:03.303Z,7000
2018-09-25T13:15:02.912Z,7000
2018-09-25T13:20:02.592Z,10000
2018-09-25T13:25:03.176Z,7000
2018-09-25T13:30:03.045Z,6000
2018-09-25T13:35:02.659Z,7000
2018-09-25T13:40:03.306Z,9000
2018-09-25T13:45:02.934Z,12000
2018-09-25T13:50:02.644Z,15000
2018-09-25T13:55:03.371Z,10000
2018-09-25T14:00:02.926Z,26000
2018-09-25T14:05:02.607Z,16000
2018-09-25T14:10:03.191Z,11000
2018-09-25T14:15:02.754Z,27000
2018-09-25T14:20:03.324Z,22000
2018-09-25T14:25:02.900Z,4000
2018-09-25T14:30:02.547Z,3000
2018-09-25T14:35:03.102Z,3000
2018-09-25T14:40:02.729Z,3000
2018-09-25T14:45:02.593Z,4000
2018-09-25T14:50:03.182Z,3000
2018-09-25T14:55:02.820Z,3000
2018-09-25T15:00:02.617Z,4000
2018-09-25T15:05:03.326Z,3000
2018-09-25T15:10:02.939Z,3000
2018-09-25T15:15:02.593Z,10000
2018-09-25T15:20:03.338Z,5000
2018-09-25T15:25:02.908Z,10000
2018-09-25T15:30:02.617Z,14000
2018-09-25T15:35:03.608Z,19000
2018-09-25T15:40:02.569Z,17000
2018-09-25T15:45:03.167Z,19000
2018-09-25T15:50:02.759Z,17000
2018-09-25T15:55:02.428Z,20000
2018-09-25T16:00:03.110Z,18000
2018-09-25T16:05:02.709Z,11000
2018-09-25T16:10:03.356Z,2000
2018-09-25T16:15:02.968Z,2000
2018-09-25T16:20:02.618Z,2000
2018-09-25T16:25:03.266Z,2000
2018-09-25T16:30:02.838Z,2000
2018-09-25T16:35:02.624Z,1000
2018-09-25T16:40:03.302Z,1000
2018-09-25T16:45:02.954Z,1000
2018-09-25T16:50:02.547Z,1000
2018-09-25T16:55:03.188Z,992
2018-09-25T17:00:02.829Z,721
2018-09-25T17:05:02.530Z,679
2018-09-25T17:10:03.272Z,548
2018-09-25T17:15:02.945Z,457
2018-09-25T17:20:02.764Z,355
2018-09-25T17:25:03.430Z,266
2018-09-25T17:30:03.040Z,82
2018-09-25T17:35:02.825Z,63
2018-09-25T17:40:02.465Z,39
2018-09-25T17:45:03.061Z,23
2018-09-25T17:50:02.827Z,14
2018-09-25T17:55:02.450Z,7
2018-09-25T18:00:03.154Z,2
2018-09-25T18:05:02.865Z,1
2018-09-25T18:10:02.562Z,0
2018-09-25T18:15:03.328Z,0
2018-09-25T18:20:03.334Z,0
2018-09-25T18:25:02.895Z,0
2018-09-25T18:30:02.542Z,0
2018-09-25T18:35:03.208Z,0
2018-09-25T18:40:02.901Z,0
2018-09-25T18:45:02.493Z,0
2018-09-25T18:50:03.265Z,0
2018-09-25T18:55:02.896Z,0
2018-09-25T19:00:02.556Z,0
2018-09-25T19:05:03.472Z,0
2018-09-25T19:10:02.856Z,0
2018-09-25T19:15:02.469Z,0
2018-09-25T19:20:03.181Z,0
2018-09-25T19:25:02.729Z,0
2018-09-25T19:30:02.432Z,0
2018-09-25T19:35:03.038Z,0
2018-09-25T19:40:02.755Z,0
2018-09-25T19:45:03.393Z,0
2018-09-25T19:50:03.036Z,0
2018-09-25T19:55:02.829Z,0
2018-09-25T20:00:02.571Z,0
2018-09-25T20:05:03.303Z,0
2018-09-25T20:10:02.974Z,0
2018-09-25T20:15:02.674Z,0
2018-09-25T20:20:03.381Z,0
2018-09-25T20:25:03.001Z,0
2018-09-25T20:30:02.731Z,0
2018-09-25T20:35:02.386Z,0
2018-09-25T20:40:03.140Z,0
2018-09-25T20:45:02.859Z,0
2018-09-25T20:50:02.591Z,0
2018-09-25T20:55:03.249Z,0
2018-09-25T21:00:02.814Z,0
2018-09-25T21:05:02.379Z,0
2018-09-25T21:10:03.166Z,0
2018-09-25T21:15:02.849Z,0
2018-09-25T21:20:02.494Z,0
2018-09-25T21:25:03.038Z,0
2018-09-25T21:30:02.887Z,0
2018-09-25T21:35:02.540Z,0
2018-09-25T21:40:03.401Z,0
2018-09-25T21:45:02.432Z,0
2018-09-25T21:50:02.435Z,0
2018-09-25T21:55:03.006Z,0
2018-09-25T22:00:02.596Z,0
2018-09-25T22:05:02.869Z,0
2018-09-25T22:10:02.532Z,0
2018-09-25T22:15:03.274Z,0
2018-09-25T22:20:02.867Z,0
2018-09-25T22:25:02.428Z,0
2018-09-25T22:30:03.037Z,0
2018-09-25T22:35:02.703Z,0
2018-09-25T22:40:02.460Z,0
2018-09-25T22:45:03.123Z,0
2018-09-25T22:50:02.754Z,0
2018-09-25T22:55:02.364Z,0
2018-09-25T23:00:03.008Z,0
2018-09-25T23:05:02.801Z,0
2018-09-25T23:10:02.630Z,0
2018-09-25T23:15:03.238Z,0
2018-09-25T23:20:02.799Z,0
2018-09-25T23:25:02.418Z,0
2018-09-25T23:30:03.012Z,0
2018-09-25T23:35:02.609Z,0
2018-09-25T23:40:03.341Z,0
2018-09-25T23:45:02.958Z,0
2018-09-25T23:50:02.804Z,0
2018-09-25T23:55:02.444Z,0
